sensor_id;sensor_type;location;lat;lon;timestamp;P1;durP1;ratioP1;P2;durP2;ratioP2
5363;SDS011;2705;41.410;2.160;2022-12-20T00:02:04;23.80;;;13.33;;
5363;SDS011;2705;41.410;2.160;2022-12-20T00:04:34;19.80;;;13.00;;
5363;SDS011;2705;41.410;2.160;2022-12-20T00:07:04;21.37;;;12.87;;
5363;SDS011;2705;41.410;2.160;2022-12-20T00:09:34;22.27;;;12.47;;
5363;SDS011;2705;41.410;2.160;2022-12-20T00:12:04;27.30;;;13.53;;
5363;SDS011;2705;41.410;2.160;2022-12-20T00:14:33;22.47;;;13.57;;
5363;SDS011;2705;41.410;2.160;2022-12-20T00:17:02;16.80;;;11.63;;
5363;SDS011;2705;41.410;2.160;2022-12-20T00:19:31;19.97;;;12.80;;
5363;SDS011;2705;41.410;2.160;2022-12-20T00:22:01;30.13;;;13.00;;
5363;SDS011;2705;41.410;2.160;2022-12-20T00:24:31;22.10;;;12.53;;
5363;SDS011;2705;41.410;2.160;2022-12-20T00:27:00;17.73;;;11.13;;
5363;SDS011;2705;41.410;2.160;2022-12-20T00:29:30;19.27;;;11.07;;
5363;SDS011;2705;41.410;2.160;2022-12-20T00:31:59;21.87;;;10.77;;
5363;SDS011;2705;41.410;2.160;2022-12-20T00:34:29;22.73;;;11.70;;
5363;SDS011;2705;41.410;2.160;2022-12-20T00:36:58;20.40;;;10.13;;
5363;SDS011;2705;41.410;2.160;2022-12-20T00:39:27;22.73;;;10.43;;
5363;SDS011;2705;41.410;2.160;2022-12-20T00:41:58;17.70;;;10.47;;
5363;SDS011;2705;41.410;2.160;2022-12-20T00:44:27;21.13;;;11.50;;
5363;SDS011;2705;41.410;2.160;2022-12-20T00:46:57;19.07;;;10.83;;
5363;SDS011;2705;41.410;2.160;2022-12-20T00:49:26;20.03;;;11.27;;
5363;SDS011;2705;41.410;2.160;2022-12-20T00:51:55;22.93;;;13.07;;
5363;SDS011;2705;41.410;2.160;2022-12-20T00:54:25;16.93;;;11.67;;
5363;SDS011;2705;41.410;2.160;2022-12-20T00:56:54;17.50;;;11.13;;
5363;SDS011;2705;41.410;2.160;2022-12-20T00:59:25;22.27;;;12.10;;
5363;SDS011;2705;41.410;2.160;2022-12-20T01:01:54;20.07;;;13.03;;
5363;SDS011;2705;41.410;2.160;2022-12-20T01:04:24;19.93;;;11.60;;
5363;SDS011;2705;41.410;2.160;2022-12-20T01:06:53;16.90;;;12.00;;
5363;SDS011;2705;41.410;2.160;2022-12-20T01:09:23;19.57;;;11.10;;
5363;SDS011;2705;41.410;2.160;2022-12-20T01:11:52;13.70;;;10.57;;
5363;SDS011;2705;41.410;2.160;2022-12-20T01:14:21;19.40;;;12.10;;
5363;SDS011;2705;41.410;2.160;2022-12-20T01:16:52;22.53;;;11.80;;
5363;SDS011;2705;41.410;2.160;2022-12-20T01:19:23;22.63;;;12.50;;
5363;SDS011;2705;41.410;2.160;2022-12-20T01:21:52;16.13;;;10.77;;
5363;SDS011;2705;41.410;2.160;2022-12-20T01:24:21;20.77;;;11.13;;
5363;SDS011;2705;41.410;2.160;2022-12-20T01:26:51;17.40;;;10.70;;
5363;SDS011;2705;41.410;2.160;2022-12-20T01:29:20;14.50;;;10.93;;
5363;SDS011;2705;41.410;2.160;2022-12-20T01:31:49;15.10;;;11.40;;
5363;SDS011;2705;41.410;2.160;2022-12-20T01:34:21;14.87;;;10.30;;
5363;SDS011;2705;41.410;2.160;2022-12-20T01:36:50;15.30;;;10.37;;
5363;SDS011;2705;41.410;2.160;2022-12-20T01:39:20;19.20;;;11.10;;
5363;SDS011;2705;41.410;2.160;2022-12-20T01:41:49;13.90;;;10.50;;
5363;SDS011;2705;41.410;2.160;2022-12-20T01:47:10;17.87;;;11.00;;
5363;SDS011;2705;41.410;2.160;2022-12-20T01:49:43;17.37;;;11.50;;
5363;SDS011;2705;41.410;2.160;2022-12-20T01:52:14;19.70;;;10.37;;
5363;SDS011;2705;41.410;2.160;2022-12-20T01:54:47;20.80;;;11.10;;
5363;SDS011;2705;41.410;2.160;2022-12-20T01:57:20;19.20;;;11.53;;
5363;SDS011;2705;41.410;2.160;2022-12-20T01:59:50;18.17;;;10.60;;
5363;SDS011;2705;41.410;2.160;2022-12-20T02:02:20;16.77;;;11.40;;
5363;SDS011;2705;41.410;2.160;2022-12-20T02:04:51;24.97;;;12.93;;
5363;SDS011;2705;41.410;2.160;2022-12-20T02:07:21;21.67;;;11.50;;
5363;SDS011;2705;41.410;2.160;2022-12-20T02:09:52;16.73;;;11.90;;
5363;SDS011;2705;41.410;2.160;2022-12-20T02:12:23;17.57;;;11.10;;
5363;SDS011;2705;41.410;2.160;2022-12-20T02:14:56;18.43;;;11.23;;
5363;SDS011;2705;41.410;2.160;2022-12-20T02:17:30;19.43;;;11.07;;
5363;SDS011;2705;41.410;2.160;2022-12-20T02:20:09;17.63;;;12.17;;
5363;SDS011;2705;41.410;2.160;2022-12-20T02:22:45;17.87;;;11.73;;
5363;SDS011;2705;41.410;2.160;2022-12-20T02:25:26;20.23;;;11.63;;
5363;SDS011;2705;41.410;2.160;2022-12-20T02:27:59;23.30;;;11.47;;
5363;SDS011;2705;41.410;2.160;2022-12-20T02:30:32;16.43;;;10.43;;
5363;SDS011;2705;41.410;2.160;2022-12-20T02:33:03;14.70;;;10.40;;
5363;SDS011;2705;41.410;2.160;2022-12-20T02:35:34;16.73;;;10.90;;
5363;SDS011;2705;41.410;2.160;2022-12-20T02:40:48;14.63;;;10.73;;
5363;SDS011;2705;41.410;2.160;2022-12-20T02:43:21;19.67;;;10.87;;
5363;SDS011;2705;41.410;2.160;2022-12-20T02:46:10;16.63;;;11.27;;
5363;SDS011;2705;41.410;2.160;2022-12-20T02:48:41;19.90;;;11.30;;
5363;SDS011;2705;41.410;2.160;2022-12-20T02:51:10;15.77;;;9.93;;
5363;SDS011;2705;41.410;2.160;2022-12-20T02:53:40;24.80;;;11.63;;
5363;SDS011;2705;41.410;2.160;2022-12-20T02:56:13;22.80;;;11.30;;
5363;SDS011;2705;41.410;2.160;2022-12-20T02:58:46;16.47;;;11.70;;
5363;SDS011;2705;41.410;2.160;2022-12-20T03:01:20;17.43;;;11.00;;
5363;SDS011;2705;41.410;2.160;2022-12-20T03:03:52;18.00;;;11.30;;
5363;SDS011;2705;41.410;2.160;2022-12-20T03:06:22;18.77;;;11.80;;
5363;SDS011;2705;41.410;2.160;2022-12-20T03:08:51;17.73;;;11.23;;
5363;SDS011;2705;41.410;2.160;2022-12-20T03:11:24;18.77;;;10.90;;
5363;SDS011;2705;41.410;2.160;2022-12-20T03:13:55;21.70;;;12.50;;
5363;SDS011;2705;41.410;2.160;2022-12-20T03:16:25;21.27;;;11.73;;
5363;SDS011;2705;41.410;2.160;2022-12-20T03:18:55;19.03;;;12.53;;
5363;SDS011;2705;41.410;2.160;2022-12-20T03:21:24;20.60;;;13.33;;
5363;SDS011;2705;41.410;2.160;2022-12-20T03:23:53;19.17;;;12.67;;
5363;SDS011;2705;41.410;2.160;2022-12-20T03:26:23;17.47;;;12.83;;
5363;SDS011;2705;41.410;2.160;2022-12-20T03:28:56;17.60;;;13.40;;
5363;SDS011;2705;41.410;2.160;2022-12-20T03:31:28;17.60;;;12.70;;
5363;SDS011;2705;41.410;2.160;2022-12-20T03:33:58;18.97;;;14.00;;
5363;SDS011;2705;41.410;2.160;2022-12-20T03:36:27;21.83;;;13.30;;
5363;SDS011;2705;41.410;2.160;2022-12-20T03:39:00;20.00;;;13.17;;
5363;SDS011;2705;41.410;2.160;2022-12-20T03:41:34;26.80;;;13.80;;
5363;SDS011;2705;41.410;2.160;2022-12-20T03:44:04;23.73;;;12.57;;
5363;SDS011;2705;41.410;2.160;2022-12-20T03:46:36;27.10;;;14.53;;
5363;SDS011;2705;41.410;2.160;2022-12-20T03:49:05;19.90;;;13.90;;
5363;SDS011;2705;41.410;2.160;2022-12-20T03:51:42;25.93;;;13.87;;
5363;SDS011;2705;41.410;2.160;2022-12-20T03:54:12;25.27;;;14.70;;
5363;SDS011;2705;41.410;2.160;2022-12-20T03:57:02;20.50;;;12.83;;
5363;SDS011;2705;41.410;2.160;2022-12-20T03:59:31;25.30;;;13.83;;
5363;SDS011;2705;41.410;2.160;2022-12-20T04:02:04;20.10;;;12.80;;
5363;SDS011;2705;41.410;2.160;2022-12-20T04:04:34;20.60;;;12.87;;
5363;SDS011;2705;41.410;2.160;2022-12-20T04:07:04;22.73;;;13.23;;
5363;SDS011;2705;41.410;2.160;2022-12-20T04:09:36;25.97;;;13.50;;
5363;SDS011;2705;41.410;2.160;2022-12-20T04:12:11;20.17;;;13.97;;
5363;SDS011;2705;41.410;2.160;2022-12-20T04:14:41;17.33;;;13.00;;
5363;SDS011;2705;41.410;2.160;2022-12-20T04:17:13;21.43;;;13.97;;
5363;SDS011;2705;41.410;2.160;2022-12-20T04:19:42;23.30;;;13.00;;
5363;SDS011;2705;41.410;2.160;2022-12-20T04:22:12;19.27;;;13.70;;
5363;SDS011;2705;41.410;2.160;2022-12-20T04:25:03;20.57;;;12.43;;
5363;SDS011;2705;41.410;2.160;2022-12-20T04:27:37;14.87;;;10.80;;
5363;SDS011;2705;41.410;2.160;2022-12-20T04:30:07;18.50;;;12.70;;
5363;SDS011;2705;41.410;2.160;2022-12-20T04:32:38;18.30;;;10.47;;
5363;SDS011;2705;41.410;2.160;2022-12-20T04:35:08;13.87;;;10.77;;
5363;SDS011;2705;41.410;2.160;2022-12-20T04:37:40;18.77;;;9.80;;
5363;SDS011;2705;41.410;2.160;2022-12-20T04:40:10;14.50;;;10.43;;
5363;SDS011;2705;41.410;2.160;2022-12-20T04:42:46;17.40;;;10.20;;
5363;SDS011;2705;41.410;2.160;2022-12-20T04:45:16;18.70;;;10.13;;
5363;SDS011;2705;41.410;2.160;2022-12-20T04:47:47;13.20;;;9.77;;
5363;SDS011;2705;41.410;2.160;2022-12-20T04:50:22;14.87;;;9.10;;
5363;SDS011;2705;41.410;2.160;2022-12-20T04:52:52;12.27;;;9.43;;
5363;SDS011;2705;41.410;2.160;2022-12-20T04:55:39;21.47;;;9.97;;
5363;SDS011;2705;41.410;2.160;2022-12-20T04:58:09;16.00;;;9.03;;
5363;SDS011;2705;41.410;2.160;2022-12-20T05:00:39;17.03;;;8.57;;
5363;SDS011;2705;41.410;2.160;2022-12-20T05:03:26;17.30;;;9.37;;
5363;SDS011;2705;41.410;2.160;2022-12-20T05:05:57;13.03;;;10.60;;
5363;SDS011;2705;41.410;2.160;2022-12-20T05:08:26;17.53;;;9.47;;
5363;SDS011;2705;41.410;2.160;2022-12-20T05:10:56;14.83;;;8.90;;
5363;SDS011;2705;41.410;2.160;2022-12-20T05:13:25;15.53;;;9.27;;
5363;SDS011;2705;41.410;2.160;2022-12-20T05:15:55;21.73;;;9.40;;
5363;SDS011;2705;41.410;2.160;2022-12-20T05:18:30;15.20;;;9.20;;
5363;SDS011;2705;41.410;2.160;2022-12-20T05:21:03;11.77;;;8.30;;
5363;SDS011;2705;41.410;2.160;2022-12-20T05:23:52;13.73;;;8.00;;
5363;SDS011;2705;41.410;2.160;2022-12-20T05:27:05;12.00;;;7.73;;
5363;SDS011;2705;41.410;2.160;2022-12-20T05:29:35;13.80;;;8.10;;
5363;SDS011;2705;41.410;2.160;2022-12-20T05:32:04;8.90;;;7.70;;
5363;SDS011;2705;41.410;2.160;2022-12-20T05:34:39;11.33;;;7.63;;
5363;SDS011;2705;41.410;2.160;2022-12-20T05:37:08;10.00;;;7.70;;
5363;SDS011;2705;41.410;2.160;2022-12-20T05:39:39;11.33;;;8.17;;
5363;SDS011;2705;41.410;2.160;2022-12-20T05:42:15;26.13;;;14.80;;
5363;SDS011;2705;41.410;2.160;2022-12-20T05:44:47;9.07;;;7.57;;
5363;SDS011;2705;41.410;2.160;2022-12-20T05:47:18;11.03;;;7.33;;
5363;SDS011;2705;41.410;2.160;2022-12-20T05:49:55;12.30;;;8.43;;
5363;SDS011;2705;41.410;2.160;2022-12-20T05:52:26;11.33;;;8.10;;
5363;SDS011;2705;41.410;2.160;2022-12-20T05:54:55;9.37;;;8.27;;
5363;SDS011;2705;41.410;2.160;2022-12-20T05:57:25;14.43;;;8.03;;
5363;SDS011;2705;41.410;2.160;2022-12-20T05:59:55;12.13;;;7.93;;
5363;SDS011;2705;41.410;2.160;2022-12-20T06:02:24;16.43;;;8.83;;
5363;SDS011;2705;41.410;2.160;2022-12-20T06:05:02;10.60;;;8.30;;
5363;SDS011;2705;41.410;2.160;2022-12-20T06:07:31;16.30;;;8.00;;
5363;SDS011;2705;41.410;2.160;2022-12-20T06:10:01;18.70;;;7.97;;
5363;SDS011;2705;41.410;2.160;2022-12-20T06:12:53;13.70;;;8.30;;
5363;SDS011;2705;41.410;2.160;2022-12-20T06:15:24;10.97;;;8.20;;
5363;SDS011;2705;41.410;2.160;2022-12-20T06:17:53;10.80;;;7.67;;
5363;SDS011;2705;41.410;2.160;2022-12-20T06:20:24;10.10;;;7.20;;
5363;SDS011;2705;41.410;2.160;2022-12-20T06:22:57;9.47;;;7.40;;
5363;SDS011;2705;41.410;2.160;2022-12-20T06:25:31;10.13;;;8.53;;
5363;SDS011;2705;41.410;2.160;2022-12-20T06:28:01;11.43;;;6.67;;
5363;SDS011;2705;41.410;2.160;2022-12-20T06:30:30;8.97;;;7.60;;
5363;SDS011;2705;41.410;2.160;2022-12-20T06:33:17;12.67;;;7.70;;
5363;SDS011;2705;41.410;2.160;2022-12-20T06:35:49;17.30;;;8.27;;
5363;SDS011;2705;41.410;2.160;2022-12-20T06:38:21;12.40;;;8.07;;
5363;SDS011;2705;41.410;2.160;2022-12-20T06:40:51;13.33;;;9.00;;
5363;SDS011;2705;41.410;2.160;2022-12-20T06:43:20;11.67;;;7.70;;
5363;SDS011;2705;41.410;2.160;2022-12-20T06:45:49;23.43;;;9.00;;
5363;SDS011;2705;41.410;2.160;2022-12-20T06:48:19;21.47;;;11.60;;
5363;SDS011;2705;41.410;2.160;2022-12-20T06:50:50;24.40;;;10.07;;
5363;SDS011;2705;41.410;2.160;2022-12-20T06:53:24;25.97;;;10.07;;
5363;SDS011;2705;41.410;2.160;2022-12-20T06:55:53;17.97;;;8.83;;
5363;SDS011;2705;41.410;2.160;2022-12-20T06:58:23;12.20;;;8.33;;
5363;SDS011;2705;41.410;2.160;2022-12-20T07:00:54;14.90;;;8.60;;
5363;SDS011;2705;41.410;2.160;2022-12-20T07:03:24;10.57;;;7.70;;
5363;SDS011;2705;41.410;2.160;2022-12-20T07:05:55;32.80;;;18.20;;
5363;SDS011;2705;41.410;2.160;2022-12-20T07:08:24;28.20;;;14.00;;
5363;SDS011;2705;41.410;2.160;2022-12-20T07:10:53;18.57;;;9.63;;
5363;SDS011;2705;41.410;2.160;2022-12-20T07:13:23;15.00;;;9.00;;
5363;SDS011;2705;41.410;2.160;2022-12-20T07:15:56;26.03;;;8.53;;
5363;SDS011;2705;41.410;2.160;2022-12-20T07:18:26;17.60;;;9.70;;
5363;SDS011;2705;41.410;2.160;2022-12-20T07:20:59;17.53;;;10.70;;
5363;SDS011;2705;41.410;2.160;2022-12-20T07:23:28;13.47;;;9.97;;
5363;SDS011;2705;41.410;2.160;2022-12-20T07:25:59;12.00;;;9.13;;
5363;SDS011;2705;41.410;2.160;2022-12-20T07:28:30;17.10;;;9.23;;
5363;SDS011;2705;41.410;2.160;2022-12-20T07:30:59;17.03;;;10.10;;
5363;SDS011;2705;41.410;2.160;2022-12-20T07:33:28;14.13;;;8.90;;
5363;SDS011;2705;41.410;2.160;2022-12-20T07:36:03;17.30;;;12.37;;
5363;SDS011;2705;41.410;2.160;2022-12-20T07:38:32;22.00;;;11.70;;
5363;SDS011;2705;41.410;2.160;2022-12-20T07:41:05;14.63;;;10.20;;
5363;SDS011;2705;41.410;2.160;2022-12-20T07:43:34;17.07;;;10.30;;
5363;SDS011;2705;41.410;2.160;2022-12-20T07:46:04;19.90;;;9.33;;
5363;SDS011;2705;41.410;2.160;2022-12-20T07:48:33;14.50;;;9.27;;
5363;SDS011;2705;41.410;2.160;2022-12-20T07:51:05;16.50;;;10.20;;
5363;SDS011;2705;41.410;2.160;2022-12-20T07:53:36;18.07;;;10.00;;
5363;SDS011;2705;41.410;2.160;2022-12-20T07:56:07;27.80;;;10.13;;
5363;SDS011;2705;41.410;2.160;2022-12-20T07:58:38;15.30;;;9.30;;
5363;SDS011;2705;41.410;2.160;2022-12-20T08:01:09;26.37;;;9.33;;
5363;SDS011;2705;41.410;2.160;2022-12-20T08:03:41;19.80;;;10.30;;
5363;SDS011;2705;41.410;2.160;2022-12-20T08:06:13;18.30;;;11.03;;
5363;SDS011;2705;41.410;2.160;2022-12-20T08:08:44;16.43;;;9.50;;
5363;SDS011;2705;41.410;2.160;2022-12-20T08:11:14;25.27;;;10.50;;
5363;SDS011;2705;41.410;2.160;2022-12-20T08:13:44;25.03;;;11.23;;
5363;SDS011;2705;41.410;2.160;2022-12-20T08:16:19;20.37;;;9.70;;
5363;SDS011;2705;41.410;2.160;2022-12-20T08:18:49;22.07;;;10.23;;
5363;SDS011;2705;41.410;2.160;2022-12-20T08:21:19;23.87;;;11.13;;
5363;SDS011;2705;41.410;2.160;2022-12-20T08:23:49;15.53;;;10.10;;
5363;SDS011;2705;41.410;2.160;2022-12-20T08:26:18;24.33;;;10.20;;
5363;SDS011;2705;41.410;2.160;2022-12-20T08:28:47;22.87;;;11.60;;
5363;SDS011;2705;41.410;2.160;2022-12-20T08:31:17;34.20;;;11.50;;
5363;SDS011;2705;41.410;2.160;2022-12-20T08:33:46;24.63;;;12.97;;
5363;SDS011;2705;41.410;2.160;2022-12-20T08:36:15;13.20;;;10.17;;
5363;SDS011;2705;41.410;2.160;2022-12-20T08:38:47;19.23;;;12.23;;
5363;SDS011;2705;41.410;2.160;2022-12-20T08:41:16;35.40;;;14.17;;
5363;SDS011;2705;41.410;2.160;2022-12-20T08:43:45;20.10;;;11.33;;
5363;SDS011;2705;41.410;2.160;2022-12-20T08:46:14;20.60;;;10.20;;
5363;SDS011;2705;41.410;2.160;2022-12-20T08:48:44;25.83;;;11.00;;
5363;SDS011;2705;41.410;2.160;2022-12-20T08:51:13;26.97;;;10.83;;
5363;SDS011;2705;41.410;2.160;2022-12-20T08:53:43;14.67;;;8.67;;
5363;SDS011;2705;41.410;2.160;2022-12-20T08:56:14;19.17;;;10.07;;
5363;SDS011;2705;41.410;2.160;2022-12-20T08:58:44;17.47;;;9.77;;
5363;SDS011;2705;41.410;2.160;2022-12-20T09:01:14;17.93;;;9.00;;
5363;SDS011;2705;41.410;2.160;2022-12-20T09:03:44;17.40;;;9.63;;
5363;SDS011;2705;41.410;2.160;2022-12-20T09:06:14;18.80;;;9.30;;
5363;SDS011;2705;41.410;2.160;2022-12-20T09:08:43;15.13;;;9.73;;
5363;SDS011;2705;41.410;2.160;2022-12-20T09:11:15;16.43;;;10.83;;
5363;SDS011;2705;41.410;2.160;2022-12-20T09:13:46;18.80;;;10.23;;
5363;SDS011;2705;41.410;2.160;2022-12-20T09:16:15;17.47;;;9.67;;
5363;SDS011;2705;41.410;2.160;2022-12-20T09:18:47;17.13;;;10.40;;
5363;SDS011;2705;41.410;2.160;2022-12-20T09:21:16;21.10;;;9.47;;
5363;SDS011;2705;41.410;2.160;2022-12-20T09:23:46;12.90;;;8.43;;
5363;SDS011;2705;41.410;2.160;2022-12-20T09:26:17;16.20;;;8.40;;
5363;SDS011;2705;41.410;2.160;2022-12-20T09:28:47;14.50;;;8.27;;
5363;SDS011;2705;41.410;2.160;2022-12-20T09:31:17;18.03;;;8.90;;
5363;SDS011;2705;41.410;2.160;2022-12-20T09:33:47;24.67;;;11.47;;
5363;SDS011;2705;41.410;2.160;2022-12-20T09:36:17;16.03;;;8.50;;
5363;SDS011;2705;41.410;2.160;2022-12-20T09:38:46;17.73;;;8.10;;
5363;SDS011;2705;41.410;2.160;2022-12-20T09:41:21;17.93;;;8.77;;
5363;SDS011;2705;41.410;2.160;2022-12-20T09:43:53;9.43;;;7.30;;
5363;SDS011;2705;41.410;2.160;2022-12-20T09:46:22;14.47;;;7.70;;
5363;SDS011;2705;41.410;2.160;2022-12-20T09:48:53;17.60;;;9.43;;
5363;SDS011;2705;41.410;2.160;2022-12-20T09:51:28;24.00;;;8.00;;
5363;SDS011;2705;41.410;2.160;2022-12-20T09:54:05;16.60;;;7.37;;
5363;SDS011;2705;41.410;2.160;2022-12-20T09:56:38;17.03;;;7.00;;
5363;SDS011;2705;41.410;2.160;2022-12-20T09:59:09;13.10;;;7.13;;
5363;SDS011;2705;41.410;2.160;2022-12-20T10:01:42;11.30;;;6.80;;
5363;SDS011;2705;41.410;2.160;2022-12-20T10:04:14;22.10;;;12.20;;
5363;SDS011;2705;41.410;2.160;2022-12-20T10:06:47;11.23;;;6.70;;
5363;SDS011;2705;41.410;2.160;2022-12-20T10:09:22;13.00;;;6.17;;
5363;SDS011;2705;41.410;2.160;2022-12-20T10:12:03;8.90;;;6.83;;
5363;SDS011;2705;41.410;2.160;2022-12-20T10:14:42;11.73;;;5.80;;
5363;SDS011;2705;41.410;2.160;2022-12-20T10:17:16;13.30;;;8.00;;
5363;SDS011;2705;41.410;2.160;2022-12-20T10:20:11;10.63;;;5.70;;
5363;SDS011;2705;41.410;2.160;2022-12-20T10:22:44;12.90;;;6.20;;
5363;SDS011;2705;41.410;2.160;2022-12-20T10:25:15;12.93;;;5.97;;
5363;SDS011;2705;41.410;2.160;2022-12-20T10:27:48;12.93;;;6.10;;
5363;SDS011;2705;41.410;2.160;2022-12-20T10:30:19;15.50;;;6.80;;
5363;SDS011;2705;41.410;2.160;2022-12-20T10:32:50;10.30;;;6.83;;
5363;SDS011;2705;41.410;2.160;2022-12-20T10:35:24;11.03;;;7.47;;
5363;SDS011;2705;41.410;2.160;2022-12-20T10:37:55;15.27;;;8.97;;
5363;SDS011;2705;41.410;2.160;2022-12-20T10:40:35;19.73;;;9.80;;
5363;SDS011;2705;41.410;2.160;2022-12-20T10:43:27;20.33;;;10.07;;
5363;SDS011;2705;41.410;2.160;2022-12-20T10:45:57;23.27;;;10.67;;
5363;SDS011;2705;41.410;2.160;2022-12-20T10:48:29;25.80;;;9.37;;
5363;SDS011;2705;41.410;2.160;2022-12-20T10:51:00;17.43;;;9.27;;
5363;SDS011;2705;41.410;2.160;2022-12-20T10:53:30;19.87;;;10.20;;
5363;SDS011;2705;41.410;2.160;2022-12-20T10:56:10;13.13;;;5.93;;
5363;SDS011;2705;41.410;2.160;2022-12-20T10:58:42;14.53;;;6.57;;
5363;SDS011;2705;41.410;2.160;2022-12-20T11:01:15;14.67;;;7.90;;
5363;SDS011;2705;41.410;2.160;2022-12-20T11:03:51;15.97;;;8.47;;
5363;SDS011;2705;41.410;2.160;2022-12-20T11:06:22;12.80;;;6.37;;
5363;SDS011;2705;41.410;2.160;2022-12-20T11:08:51;6.90;;;3.33;;
5363;SDS011;2705;41.410;2.160;2022-12-20T11:11:26;7.20;;;3.80;;
5363;SDS011;2705;41.410;2.160;2022-12-20T11:13:57;7.53;;;3.90;;
5363;SDS011;2705;41.410;2.160;2022-12-20T11:16:41;12.20;;;4.40;;
5363;SDS011;2705;41.410;2.160;2022-12-20T11:19:20;5.77;;;3.10;;
5363;SDS011;2705;41.410;2.160;2022-12-20T11:21:55;7.70;;;4.00;;
5363;SDS011;2705;41.410;2.160;2022-12-20T11:24:29;4.70;;;3.23;;
5363;SDS011;2705;41.410;2.160;2022-12-20T11:27:06;5.73;;;3.17;;
5363;SDS011;2705;41.410;2.160;2022-12-20T11:32:30;3.37;;;3.07;;
5363;SDS011;2705;41.410;2.160;2022-12-20T11:35:02;5.90;;;3.83;;
5363;SDS011;2705;41.410;2.160;2022-12-20T11:37:35;6.07;;;3.23;;
5363;SDS011;2705;41.410;2.160;2022-12-20T11:40:15;15.07;;;5.50;;
5363;SDS011;2705;41.410;2.160;2022-12-20T11:42:51;17.00;;;8.87;;
5363;SDS011;2705;41.410;2.160;2022-12-20T11:45:23;16.63;;;6.37;;
5363;SDS011;2705;41.410;2.160;2022-12-20T11:48:01;10.40;;;5.80;;
5363;SDS011;2705;41.410;2.160;2022-12-20T11:50:40;9.63;;;5.90;;
5363;SDS011;2705;41.410;2.160;2022-12-20T11:53:12;13.47;;;8.37;;
5363;SDS011;2705;41.410;2.160;2022-12-20T11:55:46;18.27;;;8.77;;
5363;SDS011;2705;41.410;2.160;2022-12-20T11:58:18;18.73;;;8.87;;
5363;SDS011;2705;41.410;2.160;2022-12-20T12:00:50;19.87;;;8.47;;
5363;SDS011;2705;41.410;2.160;2022-12-20T12:03:48;14.50;;;8.67;;
5363;SDS011;2705;41.410;2.160;2022-12-20T12:06:22;16.73;;;9.73;;
5363;SDS011;2705;41.410;2.160;2022-12-20T12:08:54;17.23;;;10.10;;
5363;SDS011;2705;41.410;2.160;2022-12-20T12:11:28;17.40;;;10.30;;
5363;SDS011;2705;41.410;2.160;2022-12-20T12:14:24;24.83;;;11.60;;
5363;SDS011;2705;41.410;2.160;2022-12-20T12:16:56;23.47;;;11.60;;
5363;SDS011;2705;41.410;2.160;2022-12-20T12:19:28;25.83;;;12.40;;
5363;SDS011;2705;41.410;2.160;2022-12-20T12:22:00;25.27;;;12.17;;
5363;SDS011;2705;41.410;2.160;2022-12-20T12:24:32;20.40;;;12.23;;
5363;SDS011;2705;41.410;2.160;2022-12-20T12:27:06;19.13;;;11.27;;
5363;SDS011;2705;41.410;2.160;2022-12-20T12:29:42;15.20;;;11.03;;
5363;SDS011;2705;41.410;2.160;2022-12-20T12:32:13;18.87;;;10.97;;
5363;SDS011;2705;41.410;2.160;2022-12-20T12:34:50;27.47;;;10.80;;
5363;SDS011;2705;41.410;2.160;2022-12-20T12:37:29;25.67;;;11.53;;
5363;SDS011;2705;41.410;2.160;2022-12-20T12:40:11;18.00;;;9.20;;
5363;SDS011;2705;41.410;2.160;2022-12-20T12:42:53;17.50;;;8.93;;
5363;SDS011;2705;41.410;2.160;2022-12-20T12:45:26;15.80;;;9.33;;
5363;SDS011;2705;41.410;2.160;2022-12-20T12:47:56;24.43;;;10.00;;
5363;SDS011;2705;41.410;2.160;2022-12-20T12:50:28;19.10;;;9.97;;
5363;SDS011;2705;41.410;2.160;2022-12-20T12:52:59;17.07;;;8.20;;
5363;SDS011;2705;41.410;2.160;2022-12-20T12:55:39;17.63;;;8.93;;
5363;SDS011;2705;41.410;2.160;2022-12-20T12:58:13;16.30;;;7.73;;
5363;SDS011;2705;41.410;2.160;2022-12-20T13:00:46;13.30;;;8.87;;
5363;SDS011;2705;41.410;2.160;2022-12-20T13:03:44;17.30;;;8.60;;
5363;SDS011;2705;41.410;2.160;2022-12-20T13:09:16;15.30;;;6.90;;
5363;SDS011;2705;41.410;2.160;2022-12-20T13:11:46;11.23;;;6.43;;
5363;SDS011;2705;41.410;2.160;2022-12-20T13:20:14;12.10;;;7.70;;
5363;SDS011;2705;41.410;2.160;2022-12-20T13:25:30;16.37;;;6.27;;
5363;SDS011;2705;41.410;2.160;2022-12-20T13:30:44;16.13;;;6.17;;
5363;SDS011;2705;41.410;2.160;2022-12-20T13:33:18;15.83;;;6.23;;
5363;SDS011;2705;41.410;2.160;2022-12-20T13:35:54;9.20;;;5.80;;
5363;SDS011;2705;41.410;2.160;2022-12-20T13:41:18;13.57;;;8.33;;
5363;SDS011;2705;41.410;2.160;2022-12-20T13:43:52;10.37;;;7.33;;
5363;SDS011;2705;41.410;2.160;2022-12-20T13:46:23;7.30;;;5.70;;
5363;SDS011;2705;41.410;2.160;2022-12-20T13:48:55;9.07;;;5.90;;
5363;SDS011;2705;41.410;2.160;2022-12-20T13:51:25;14.37;;;6.07;;
5363;SDS011;2705;41.410;2.160;2022-12-20T13:53:56;10.43;;;7.10;;
5363;SDS011;2705;41.410;2.160;2022-12-20T13:56:32;12.37;;;6.93;;
5363;SDS011;2705;41.410;2.160;2022-12-20T13:59:04;9.20;;;6.80;;
5363;SDS011;2705;41.410;2.160;2022-12-20T14:01:34;12.73;;;7.43;;
5363;SDS011;2705;41.410;2.160;2022-12-20T14:04:03;8.73;;;5.57;;
5363;SDS011;2705;41.410;2.160;2022-12-20T14:06:34;11.70;;;5.50;;
5363;SDS011;2705;41.410;2.160;2022-12-20T14:09:04;7.73;;;5.17;;
5363;SDS011;2705;41.410;2.160;2022-12-20T14:12:01;14.20;;;5.47;;
5363;SDS011;2705;41.410;2.160;2022-12-20T14:14:30;8.47;;;5.27;;
5363;SDS011;2705;41.410;2.160;2022-12-20T14:17:14;17.40;;;7.20;;
5363;SDS011;2705;41.410;2.160;2022-12-20T14:19:43;9.77;;;5.70;;
5363;SDS011;2705;41.410;2.160;2022-12-20T14:22:13;18.53;;;6.63;;
5363;SDS011;2705;41.410;2.160;2022-12-20T14:24:42;10.40;;;5.43;;
5363;SDS011;2705;41.410;2.160;2022-12-20T14:27:14;10.70;;;6.67;;
5363;SDS011;2705;41.410;2.160;2022-12-20T14:29:43;10.20;;;5.07;;
5363;SDS011;2705;41.410;2.160;2022-12-20T14:32:16;7.50;;;4.70;;
5363;SDS011;2705;41.410;2.160;2022-12-20T14:34:46;12.30;;;5.27;;
5363;SDS011;2705;41.410;2.160;2022-12-20T14:37:16;7.53;;;4.17;;
5363;SDS011;2705;41.410;2.160;2022-12-20T14:39:53;13.53;;;5.00;;
5363;SDS011;2705;41.410;2.160;2022-12-20T14:42:25;11.93;;;5.07;;
5363;SDS011;2705;41.410;2.160;2022-12-20T14:45:01;9.93;;;3.90;;
5363;SDS011;2705;41.410;2.160;2022-12-20T14:47:30;7.17;;;3.73;;
5363;SDS011;2705;41.410;2.160;2022-12-20T14:50:00;7.80;;;4.30;;
5363;SDS011;2705;41.410;2.160;2022-12-20T14:52:32;11.57;;;5.77;;
5363;SDS011;2705;41.410;2.160;2022-12-20T14:55:04;9.73;;;5.80;;
5363;SDS011;2705;41.410;2.160;2022-12-20T14:57:39;15.70;;;5.53;;
5363;SDS011;2705;41.410;2.160;2022-12-20T15:00:12;11.53;;;5.17;;
5363;SDS011;2705;41.410;2.160;2022-12-20T15:02:45;13.83;;;6.33;;
5363;SDS011;2705;41.410;2.160;2022-12-20T15:08:09;15.13;;;7.10;;
5363;SDS011;2705;41.410;2.160;2022-12-20T15:10:38;11.53;;;6.30;;
5363;SDS011;2705;41.410;2.160;2022-12-20T15:13:13;19.97;;;7.10;;
5363;SDS011;2705;41.410;2.160;2022-12-20T15:15:43;15.73;;;6.90;;
5363;SDS011;2705;41.410;2.160;2022-12-20T15:18:12;13.50;;;6.30;;
5363;SDS011;2705;41.410;2.160;2022-12-20T15:20:42;11.43;;;6.23;;
5363;SDS011;2705;41.410;2.160;2022-12-20T15:23:13;13.10;;;7.00;;
5363;SDS011;2705;41.410;2.160;2022-12-20T15:25:43;15.47;;;7.13;;
5363;SDS011;2705;41.410;2.160;2022-12-20T15:28:15;9.53;;;6.63;;
5363;SDS011;2705;41.410;2.160;2022-12-20T15:30:45;13.60;;;7.20;;
5363;SDS011;2705;41.410;2.160;2022-12-20T15:33:18;14.37;;;7.73;;
5363;SDS011;2705;41.410;2.160;2022-12-20T15:35:48;18.10;;;8.37;;
5363;SDS011;2705;41.410;2.160;2022-12-20T15:38:18;11.33;;;8.13;;
5363;SDS011;2705;41.410;2.160;2022-12-20T15:41:10;16.00;;;7.57;;
5363;SDS011;2705;41.410;2.160;2022-12-20T15:43:43;36.70;;;9.67;;
5363;SDS011;2705;41.410;2.160;2022-12-20T15:46:12;13.60;;;8.13;;
5363;SDS011;2705;41.410;2.160;2022-12-20T15:48:41;10.87;;;6.83;;
5363;SDS011;2705;41.410;2.160;2022-12-20T15:51:12;13.00;;;8.60;;
5363;SDS011;2705;41.410;2.160;2022-12-20T15:53:42;14.77;;;8.53;;
5363;SDS011;2705;41.410;2.160;2022-12-20T15:56:14;11.70;;;7.60;;